• NOTAM LFLT

     18/01 09:39Z - 31/03/23 11:59Z
    DISTANCES DECLAREES MODIFIEES CAUSE OBSTACLE : - RWY11 TORA (NIL) TODA (NIL) ASDA (NIL) LDA (700) THR11 DEPLACE DE 300M APRES L'ENTREE DE PISTE ,AVEC MARQUAGE TEMPORAIRE (CONES JAUNE) - RWY29 TORA (700) TODA (700) ASDA (1000) LDA (1000) LA FIN DE PISTE UTILISABLE AU DECOLLAGE PISTE 29 (TORA) EST SITUEE 300M AVANT L'EXTREMITE DE PISTE (CONES JAUNE)

     19/01 12:00Z - 31/03/23 11:59Z
    OBST: ARBRES RDL285/0.26NM DTHR 12 PSN 462117.3N 0023339.4E ALTITUDE : 837FT HAUTEUR : 66FT

    NOTAM LFBK

     09/12/22 11:26Z - 09/03/23 04:00Z
    PISTE NON REVETUE FERMEE.











  • PHOTOS SATELLITE

CARTE TEMSI

CARTE WINTEM

  • Vent au sol

  • Vent à 2000ft

  • ANIMATION RADAR

  • METAR/TAF LFLX (CHATEAUROUX / Déols)

    LFLX 131630Z AUTO 25009KT 9999 SCT029 BKN035 BKN044 10/07 Q1023 TEMPO 23015G25KT SCT030TCU

    TAF LFLX 050500Z 0506/0612 02010KT 9999 BKN030 PROB30 TEMPO 0506/0510 BKN012 PROB40 TEMPO 0513/0517 4000 -RA BKN012 BECMG 0518/0520 CAVOK TEMPO 0607/0611 BKN012 PROB40 TEMPO 0607/0609 BKN008

    METAR/TAF LFBL (LIMOGES / Bellegarde)

    LFBL 041200Z AUTO 05012KT 9999 OVC017 08/04 Q1035 BECMG BKN014

    TAF AMD LFBL 050814Z 0508/0606 02010KT 9999 OVC005 BECMG 0508/0510 BKN025 TEMPO 0600/0606 0800 FG VV///

    METAR/TAF LFOA

    LFOA 051000Z AUTO 02006KT 9999 SCT048 08/04 Q1040 NOSIG

    TAF LFOA 050800Z 0509/0609 36005KT 9999 OVC045 TX10/0515Z TN06/0606Z TEMPO 0513/0517 3000 -RADZ BKN009 BKN014 TEMPO 0515/0519 36010G20KT TEMPO 0600/0603 BKN005 BKN009

    METAR/TAF LFQG (NEVERS / Fourchambault)

    LFQG 021700Z AUTO 29004KT 9999 OVC037 08/03 Q1034

    METAR/TAF LFLV (VICHY / Charmeil)

    LFLV 131630Z AUTO 21003KT 170V250 CAVOK 10/04 Q1024

RESERVATION

  • COMM' FFA

    Brevet d’Initiation Aéronautique (BIA) c’est le moment de vous inscrire !

    Les inscriptions à l'examen sont ouvertes. Vous avez jusqu’au 8 mars 2023 pour vous inscrire à l’examen via l'application Cyclades.

    Les épreuves du BIA se dérouleront le mercredi 31 mai 2023 à 14 heures (mercredi 8 novembre 2023 pour la Polynésie française et la Nouvelle-Calédonie).